Time;durP1;ratioP1;P1;durP2;ratioP2;P2;SDS_P1;SDS_P2;PMS_P1;PMS_P2;Temp;Humidity;BMP_temperature;BMP_pressure;BME280_temperature;BME280_humidity;BME280_pressure;Samples;Min_cycle;Max_cycle;Signal;HPM_P1;HPM_P2
2023/03/15 00:01:47;;;;;;;15.50;7.17;;;;;;;-147.16;71.22;75274.72;4244758;28;20237;-70
2023/03/15 00:04:13;;;;;;;12.43;6.57;;;;;;;-147.16;71.13;75274.72;4246801;28;21416;-72
2023/03/15 00:06:41;;;;;;;14.87;6.60;;;;;;;-147.16;71.20;75278.78;4236791;28;22142;-73
2023/03/15 00:09:07;;;;;;;14.23;6.90;;;;;;;-147.16;71.25;75278.78;4245152;28;20226;-71
2023/03/15 00:11:34;;;;;;;13.10;6.90;;;;;;;-147.16;71.76;75294.97;4273517;28;21367;-72
2023/03/15 00:14:01;;;;;;;15.37;6.57;;;;;;;-147.16;71.41;75286.88;4255820;28;21673;-71
2023/03/15 00:16:28;;;;;;;12.57;6.70;;;;;;;-147.16;71.31;75303.06;4235196;28;20472;-72
2023/03/15 00:18:55;;;;;;;15.37;7.47;;;;;;;-147.16;71.69;75311.16;4241142;28;20238;-70
2023/03/15 00:21:21;;;;;;;15.37;7.23;;;;;;;-147.16;71.95;75303.06;4245172;28;22469;-72
2023/03/15 00:23:48;;;;;;;15.37;7.23;;;;;;;-147.16;72.02;75323.31;4244235;28;21285;-71
2023/03/15 00:26:15;;;;;;;15.23;7.53;;;;;;;-147.16;72.85;75345.56;4247448;28;20261;-71
2023/03/15 00:28:42;;;;;;;15.63;8.07;;;;;;;-147.16;73.49;75365.81;4234586;28;21268;-74
2023/03/15 00:31:17;;;;;;;16.83;8.30;;;;;;;-147.16;73.61;75367.84;4223620;28;20369;-72
2023/03/15 00:33:44;;;;;;;14.50;8.13;;;;;;;-147.16;73.67;75363.78;4245957;28;20355;-71
2023/03/15 00:36:11;;;;;;;15.53;7.83;;;;;;;-147.16;74.33;75396.16;4246396;28;21186;-71
2023/03/15 00:38:39;;;;;;;10.43;5.60;;;;;;;-147.16;72.70;75438.66;4242363;28;20257;-72
2023/03/15 00:41:08;;;;;;;5.53;3.13;;;;;;;-147.16;69.89;75558.06;4239473;28;20225;-71
2023/03/15 00:43:34;;;;;;;6.57;2.03;;;;;;;-147.16;69.39;75659.28;4246967;28;20229;-71
2023/03/15 00:46:02;;;;;;;2.90;1.77;;;;;;;-147.16;69.90;75715.94;4245357;28;20371;-71
2023/03/15 00:48:28;;;;;;;2.23;1.43;;;;;;;-147.16;69.56;75746.31;4240044;28;20236;-70
2023/03/15 00:51:10;;;;;;;2.17;1.30;;;;;;;-147.16;69.28;75827.28;4228669;28;20237;-74
2023/03/15 00:53:39;;;;;;;3.07;1.03;;;;;;;-147.16;69.96;75869.78;4240002;28;20232;-71
2023/03/15 00:56:07;;;;;;;1.40;0.87;;;;;;;-147.16;71.72;75942.66;4244750;28;20363;-70
2023/03/15 00:58:34;;;;;;;2.87;0.93;;;;;;;-147.16;72.78;75975.03;4246394;28;20518;-71
2023/03/15 01:01:11;;;;;;;1.43;0.80;;;;;;;-147.16;73.44;76009.44;4248741;28;20250;-74
2023/03/15 01:03:39;;;;;;;2.23;0.93;;;;;;;-147.16;74.25;76078.25;4248997;28;20563;-71
2023/03/15 01:06:18;;;;;;;2.13;0.73;;;;;;;-147.16;74.74;76108.63;4245605;28;20226;-74
2023/03/15 01:08:44;;;;;;;3.43;0.80;;;;;;;-147.16;76.25;76141.00;4248340;28;21781;-73
2023/03/15 01:11:13;;;;;;;3.97;1.30;;;;;;;-147.16;77.38;76177.44;4244982;28;22225;-72
2023/03/15 01:13:40;;;;;;;3.93;1.10;;;;;;;-147.16;78.50;76205.78;4245284;28;22564;-71
2023/03/15 01:16:08;;;;;;;3.33;1.00;;;;;;;-147.16;79.56;76238.19;4250417;28;23642;-71
2023/03/15 01:18:36;;;;;;;4.10;1.07;;;;;;;-147.16;80.32;76250.31;4253687;28;21285;-70
2023/03/15 01:21:10;;;;;;;3.10;1.27;;;;;;;-147.16;80.99;76276.63;4250652;28;20784;-71
2023/03/15 01:23:37;;;;;;;4.17;1.30;;;;;;;-147.16;81.32;76311.06;4248551;28;20237;-70
2023/03/15 01:26:06;;;;;;;7.03;1.30;;;;;;;-147.16;81.50;76321.19;4251872;28;21822;-70
2023/03/15 01:28:33;;;;;;;3.70;1.87;;;;;;;-147.16;82.22;76319.16;4255404;28;22888;-72
2023/03/15 01:30:59;;;;;;;5.27;1.57;;;;;;;-147.16;82.49;76337.38;4246108;28;20324;-69
2023/03/15 01:33:27;;;;;;;4.30;1.50;;;;;;;-147.16;81.67;76351.53;4259609;28;25304;-72
2023/03/15 01:36:02;;;;;;;4.60;1.40;;;;;;;-147.16;81.69;76363.69;4243239;28;20242;-73
2023/03/15 01:38:29;;;;;;;5.07;1.70;;;;;;;-147.16;81.10;76359.63;4255846;28;22527;-71
2023/03/15 01:40:56;;;;;;;3.30;1.67;;;;;;;-147.16;80.68;76379.88;4255071;28;21792;-70
2023/03/15 01:43:25;;;;;;;3.37;1.43;;;;;;;-147.16;80.22;76385.97;4248896;28;21172;-70
2023/03/15 01:46:00;;;;;;;2.37;1.30;;;;;;;-147.16;80.14;76398.09;4254073;28;20241;-70
2023/03/15 01:48:49;;;;;;;2.37;1.40;;;;;;;-147.16;80.37;76404.19;4255792;28;22987;-71
2023/03/15 01:51:31;;;;;;;3.40;1.40;;;;;;;-147.16;80.50;76412.28;4240812;28;20292;-69
2023/03/15 01:54:08;;;;;;;5.93;1.60;;;;;;;-147.16;80.25;76424.41;4243327;28;20696;-72
2023/03/15 01:56:37;;;;;;;8.30;1.40;;;;;;;-147.16;80.20;76432.53;4261147;28;20279;-69
2023/03/15 01:59:08;;;;;;;3.53;1.33;;;;;;;-147.16;79.50;76444.66;4256815;28;20234;-71
2023/03/15 02:01:36;;;;;;;2.20;1.20;;;;;;;-147.16;79.20;76468.97;4246745;28;20230;-71
2023/03/15 02:04:07;;;;;;;4.00;1.47;;;;;;;-147.16;78.68;76466.94;4237348;28;22796;-70
2023/03/15 02:06:34;;;;;;;3.37;1.40;;;;;;;-147.16;78.59;76460.84;4243956;28;20237;-70
2023/03/15 02:09:08;;;;;;;2.33;1.40;;;;;;;-147.16;77.70;76475.03;4228175;28;20297;-70
2023/03/15 02:11:35;;;;;;;5.33;1.20;;;;;;;-147.16;77.65;76473.00;4232176;28;20246;-68
2023/03/15 02:14:04;;;;;;;2.07;1.20;;;;;;;-147.16;77.54;76505.41;4249411;28;20234;-69
2023/03/15 02:16:30;;;;;;;3.87;1.27;;;;;;;-147.16;77.63;76501.34;4221233;28;20396;-70
2023/03/15 02:18:57;;;;;;;1.70;0.87;;;;;;;-147.16;77.28;76499.31;4237182;28;20260;-71
2023/03/15 02:21:29;;;;;;;3.93;1.00;;;;;;;-147.16;77.06;76497.28;4258460;28;20469;-71
2023/03/15 02:24:24;;;;;;;3.90;1.03;;;;;;;-147.16;76.69;76513.50;4246329;28;20380;-69
2023/03/15 02:26:54;;;;;;;3.17;1.00;;;;;;;-147.16;76.22;76513.50;4251175;28;20400;-70
2023/03/15 02:29:21;;;;;;;1.83;1.10;;;;;;;-147.16;75.37;76515.53;4251007;28;20224;-70
2023/03/15 02:31:48;;;;;;;2.20;0.90;;;;;;;-147.16;75.12;76533.75;4244107;28;20380;-70
2023/03/15 02:34:15;;;;;;;2.93;0.90;;;;;;;-147.16;73.60;76529.69;4236614;28;20238;-69
2023/03/15 02:36:41;;;;;;;6.80;1.37;;;;;;;-147.16;73.36;76537.78;4253868;28;26531;-69
2023/03/15 02:39:16;;;;;;;8.73;1.30;;;;;;;-147.16;73.36;76547.91;4235537;28;20225;-70
2023/03/15 02:41:51;;;;;;;5.73;1.10;;;;;;;-147.16;72.73;76541.84;4242819;28;20411;-70
2023/03/15 02:44:22;;;;;;;5.83;1.10;;;;;;;-147.16;72.64;76547.91;4223085;28;20238;-70
2023/03/15 02:46:50;;;;;;;3.73;0.90;;;;;;;-147.16;72.42;76547.91;4232965;28;21170;-69
2023/03/15 02:49:17;;;;;;;4.30;1.07;;;;;;;-147.16;72.32;76566.13;4238050;28;26118;-68
2023/03/15 02:51:44;;;;;;;3.17;1.00;;;;;;;-147.16;72.50;76566.13;4235528;28;20241;-69
2023/03/15 02:54:10;;;;;;;4.93;1.00;;;;;;;-147.16;72.39;76564.09;4230615;28;21794;-70
2023/03/15 02:56:37;;;;;;;4.13;0.97;;;;;;;-147.16;72.47;76568.16;4248241;28;20709;-68
2023/03/15 02:59:03;;;;;;;5.00;1.17;;;;;;;-147.16;71.33;76549.94;4250466;28;21563;-68
2023/03/15 03:01:30;;;;;;;4.80;1.10;;;;;;;-147.16;71.71;76568.16;4249918;28;20223;-68
2023/03/15 03:03:57;;;;;;;4.17;0.97;;;;;;;-147.16;71.66;76564.09;4249734;28;20238;-69
2023/03/15 03:06:23;;;;;;;4.27;0.97;;;;;;;-147.16;71.52;76570.19;4246438;28;20717;-69
2023/03/15 03:08:50;;;;;;;3.27;1.00;;;;;;;-147.16;71.74;76572.19;4249140;28;21806;-69
2023/03/15 03:11:16;;;;;;;3.70;1.20;;;;;;;-147.16;71.01;76578.28;4245325;28;20306;-68
2023/03/15 03:13:43;;;;;;;2.90;1.07;;;;;;;-147.16;71.59;76590.41;4247232;28;20398;-68
2023/03/15 03:16:10;;;;;;;5.63;1.40;;;;;;;-147.16;71.37;76592.44;4244839;28;20375;-68
2023/03/15 03:18:37;;;;;;;7.43;1.33;;;;;;;-147.16;71.82;76618.75;4244935;28;20298;-70
2023/03/15 03:21:05;;;;;;;6.40;0.97;;;;;;;-147.16;72.25;76610.66;4240692;28;22313;-72
2023/03/15 03:23:33;;;;;;;7.77;1.33;;;;;;;-147.16;72.60;76626.88;4245147;28;21452;-69
2023/03/15 03:26:01;;;;;;;9.13;1.47;;;;;;;-147.16;72.80;76630.91;4252352;28;20234;-70
2023/03/15 03:28:30;;;;;;;13.43;1.43;;;;;;;-147.16;72.47;76618.75;4250322;28;20296;-70
2023/03/15 03:30:58;;;;;;;6.30;1.33;;;;;;;-147.16;72.39;76618.75;4245970;28;20226;-67
2023/03/15 03:33:24;;;;;;;7.47;1.33;;;;;;;-147.16;72.27;76622.81;4227810;28;20286;-69
2023/03/15 03:35:52;;;;;;;6.20;1.70;;;;;;;-147.16;72.90;76639.00;4253586;28;20222;-70
2023/03/15 03:38:19;;;;;;;4.00;1.90;;;;;;;-147.16;73.65;76647.09;4237845;28;20233;-70
2023/03/15 03:40:46;;;;;;;14.80;2.23;;;;;;;-147.16;73.41;76643.06;4247754;28;20248;-69
2023/03/15 03:43:12;;;;;;;5.27;2.20;;;;;;;-147.16;72.91;76634.97;4252221;28;20227;-69
2023/03/15 03:45:39;;;;;;;7.83;1.93;;;;;;;-147.16;73.39;76651.16;4252998;28;22877;-69
2023/03/15 03:48:05;;;;;;;8.07;2.43;;;;;;;-147.16;72.86;76639.00;4247954;28;20226;-70
2023/03/15 03:50:32;;;;;;;5.67;1.97;;;;;;;-147.16;73.16;76651.16;4252806;28;21731;-70
2023/03/15 03:52:58;;;;;;;8.10;2.07;;;;;;;-147.16;73.18;76639.00;4244753;28;20411;-70
2023/03/15 03:55:25;;;;;;;8.83;2.77;;;;;;;-147.16;72.70;76626.88;4255918;28;20729;-68
2023/03/15 03:57:54;;;;;;;8.10;2.30;;;;;;;-147.16;72.20;76643.06;4249457;28;20562;-71
2023/03/15 04:00:20;;;;;;;5.93;2.60;;;;;;;-147.16;72.49;76653.19;4252061;28;20230;-69
2023/03/15 04:02:47;;;;;;;10.87;2.97;;;;;;;-147.16;72.61;76663.31;4252123;28;21558;-70
2023/03/15 04:05:14;;;;;;;5.07;2.43;;;;;;;-147.16;72.73;76667.34;4252068;28;20360;-69
2023/03/15 04:07:41;;;;;;;8.27;2.40;;;;;;;-147.16;72.49;76653.19;4249255;28;20308;-69
2023/03/15 04:10:08;;;;;;;6.10;2.63;;;;;;;-147.16;72.71;76677.47;4247960;28;20233;-67
2023/03/15 04:12:34;;;;;;;8.57;2.80;;;;;;;-147.16;73.32;76691.66;4250462;28;20742;-68
2023/03/15 04:15:02;;;;;;;4.10;2.57;;;;;;;-147.16;73.04;76689.63;4252153;28;20247;-68
2023/03/15 04:17:28;;;;;;;8.47;2.70;;;;;;;-147.16;74.09;76707.84;4247730;28;20411;-64
2023/03/15 04:19:55;;;;;;;12.03;2.77;;;;;;;-147.16;73.78;76707.84;4247484;28;20234;-67
2023/03/15 04:22:21;;;;;;;5.37;3.00;;;;;;;-147.16;73.03;76701.78;4252523;28;20226;-66
2023/03/15 04:24:49;;;;;;;13.80;3.10;;;;;;;-147.16;72.57;76703.78;4248597;28;20230;-66
2023/03/15 04:27:16;;;;;;;6.57;3.00;;;;;;;-147.16;72.45;76699.75;4245373;28;20230;-67
2023/03/15 04:29:42;;;;;;;6.37;2.43;;;;;;;-147.16;71.97;76703.78;4251634;28;21871;-69
2023/03/15 04:32:10;;;;;;;7.57;2.77;;;;;;;-147.16;72.04;76697.72;4248554;28;21137;-67
2023/03/15 04:34:37;;;;;;;9.70;2.67;;;;;;;-147.16;72.14;76713.91;4252854;28;20404;-66
2023/03/15 04:37:05;;;;;;;8.93;2.93;;;;;;;-147.16;72.33;76707.84;4253420;28;21331;-65
2023/03/15 04:39:31;;;;;;;10.77;2.80;;;;;;;-147.16;71.76;76707.84;4249012;28;20240;-68
2023/03/15 04:41:58;;;;;;;6.97;2.70;;;;;;;-147.16;71.35;76703.78;4240616;28;20226;-64
2023/03/15 04:44:25;;;;;;;6.17;2.93;;;;;;;-147.16;70.99;76713.91;4248689;28;22960;-64
2023/03/15 04:46:55;;;;;;;6.63;2.93;;;;;;;-147.16;70.49;76707.84;4245550;28;20664;-65
2023/03/15 04:49:21;;;;;;;7.27;2.87;;;;;;;-147.16;70.40;76713.91;4239560;28;20226;-68
2023/03/15 04:51:48;;;;;;;7.27;2.70;;;;;;;-147.16;69.55;76724.03;4246549;28;25579;-67
2023/03/15 04:54:15;;;;;;;14.70;3.00;;;;;;;-147.16;68.41;76726.06;4255977;28;20277;-67
2023/03/15 04:56:41;;;;;;;10.57;2.67;;;;;;;-147.16;67.45;76722.00;4246575;28;20461;-65
2023/03/15 04:59:09;;;;;;;8.83;2.73;;;;;;;-147.16;66.96;76726.06;4246122;28;20260;-64
2023/03/15 05:01:36;;;;;;;10.43;2.97;;;;;;;-147.16;67.17;76722.00;4231837;28;20401;-69
2023/03/15 05:04:03;;;;;;;11.70;2.57;;;;;;;-147.16;66.82;76724.03;4253974;28;20432;-66
2023/03/15 05:06:29;;;;;;;6.20;2.50;;;;;;;-147.16;66.94;76730.13;4247916;28;21345;-67
2023/03/15 05:08:56;;;;;;;7.37;2.57;;;;;;;-147.16;66.94;76746.31;4251794;28;21262;-67
2023/03/15 05:11:22;;;;;;;7.60;2.40;;;;;;;-147.16;67.51;76748.34;4254317;28;21250;-67
2023/03/15 05:13:49;;;;;;;11.70;3.00;;;;;;;-147.16;67.49;76756.44;4245218;28;21178;-69
2023/03/15 05:16:16;;;;;;;12.40;3.20;;;;;;;-147.16;67.54;76752.38;4243419;28;20230;-69
2023/03/15 05:18:44;;;;;;;9.40;3.23;;;;;;;-147.16;67.70;76744.28;4256441;28;20233;-69
2023/03/15 05:21:11;;;;;;;10.40;3.00;;;;;;;-147.16;67.44;76748.34;4248190;28;20230;-66
2023/03/15 05:23:38;;;;;;;11.60;3.57;;;;;;;-147.16;67.44;76758.47;4239046;28;20302;-66
2023/03/15 05:26:05;;;;;;;13.50;3.73;;;;;;;-147.16;68.36;76768.56;4247202;28;20222;-66
2023/03/15 05:28:31;;;;;;;15.83;4.10;;;;;;;-147.16;66.87;76768.56;4250343;28;20250;-65
2023/03/15 05:30:58;;;;;;;9.60;4.07;;;;;;;-147.16;66.56;76780.72;4243445;28;20242;-66
2023/03/15 05:33:26;;;;;;;14.47;4.07;;;;;;;-147.16;65.85;76764.53;4247795;28;20239;-66
2023/03/15 05:35:55;;;;;;;10.43;4.40;;;;;;;-147.16;65.47;76768.56;4253484;28;20963;-70
2023/03/15 05:38:25;;;;;;;13.20;4.23;;;;;;;-147.16;65.38;76762.50;4257377;28;20238;-65
2023/03/15 05:40:53;;;;;;;14.27;4.90;;;;;;;-147.16;65.47;76766.56;4256047;28;22347;-70
2023/03/15 05:43:20;;;;;;;15.27;5.53;;;;;;;-147.16;65.75;76762.50;4241399;28;20296;-66
2023/03/15 05:45:47;;;;;;;15.10;4.37;;;;;;;-147.16;65.23;76758.47;4261769;28;22405;-66
2023/03/15 05:48:16;;;;;;;11.27;4.80;;;;;;;-147.16;65.65;76778.69;4256373;28;20219;-67
2023/03/15 05:50:42;;;;;;;16.97;5.47;;;;;;;-147.16;65.22;76776.69;4273709;28;20579;-67
2023/03/15 05:53:09;;;;;;;9.87;4.23;;;;;;;-147.16;64.84;76772.63;4256871;28;20306;-68
2023/03/15 05:55:36;;;;;;;11.27;4.67;;;;;;;-147.16;65.05;76786.81;4256842;28;20240;-66
2023/03/15 05:58:03;;;;;;;13.70;4.80;;;;;;;-147.16;65.21;76786.81;4256034;28;21887;-66
2023/03/15 06:00:30;;;;;;;14.20;4.50;;;;;;;-147.16;64.85;76790.84;4252433;28;23007;-68
2023/03/15 06:02:56;;;;;;;12.73;4.40;;;;;;;-147.16;65.00;76805.03;4264611;28;22069;-68
2023/03/15 06:05:23;;;;;;;11.07;4.23;;;;;;;-147.16;64.71;76794.91;4291565;28;22661;-67
2023/03/15 06:07:50;;;;;;;18.60;5.03;;;;;;;-147.16;64.67;76800.97;4234871;28;20693;-67
2023/03/15 06:10:16;;;;;;;16.97;5.07;;;;;;;-147.16;64.87;76805.03;4260781;28;20226;-69
2023/03/15 06:12:43;;;;;;;12.03;4.57;;;;;;;-147.16;64.48;76796.91;4255592;28;22718;-66
2023/03/15 06:15:10;;;;;;;11.53;4.10;;;;;;;-147.16;64.07;76809.06;4257431;28;20231;-66
2023/03/15 06:17:37;;;;;;;16.03;4.03;;;;;;;-147.16;63.74;76800.97;4265939;28;20391;-67
2023/03/15 06:20:04;;;;;;;11.27;4.07;;;;;;;-147.16;63.67;76805.03;4259508;28;20292;-70
2023/03/15 06:22:31;;;;;;;10.73;4.33;;;;;;;-147.16;63.82;76792.88;4254743;28;20239;-67
2023/03/15 06:24:57;;;;;;;15.60;4.10;;;;;;;-147.16;63.59;76817.16;4246821;28;22343;-72
2023/03/15 06:27:24;;;;;;;12.40;4.70;;;;;;;-147.16;63.67;76805.03;4258657;28;20234;-68
2023/03/15 06:29:51;;;;;;;15.80;4.83;;;;;;;-147.16;63.24;76817.16;4259369;28;20338;-65
2023/03/15 06:32:17;;;;;;;11.70;4.40;;;;;;;-147.16;63.33;76809.06;4263309;28;20243;-70
2023/03/15 06:34:44;;;;;;;11.83;5.33;;;;;;;-147.16;62.98;76829.31;4243429;28;22199;-67
2023/03/15 06:37:12;;;;;;;11.10;4.80;;;;;;;-147.16;62.95;76843.50;4256288;28;21512;-70
2023/03/15 06:39:43;;;;;;;12.23;4.90;;;;;;;-147.16;63.01;76847.53;4258405;28;20237;-66
2023/03/15 06:42:12;;;;;;;22.73;5.13;;;;;;;-147.16;62.39;76851.59;4254321;28;20270;-67
2023/03/15 06:44:40;;;;;;;13.93;5.10;;;;;;;-147.16;62.67;76869.81;4259430;28;20380;-68
2023/03/15 06:47:07;;;;;;;18.50;5.10;;;;;;;-147.16;62.16;76853.63;4272141;28;21274;-65
2023/03/15 06:49:34;;;;;;;18.23;5.67;;;;;;;-147.16;61.96;76865.75;4246713;28;20293;-69
2023/03/15 06:52:01;;;;;;;15.27;5.00;;;;;;;-147.16;61.66;76877.91;4267051;28;21203;-69
2023/03/15 06:54:28;;;;;;;12.07;5.47;;;;;;;-147.16;61.99;76886.00;4274099;28;20234;-64
2023/03/15 06:56:54;;;;;;;15.93;5.17;;;;;;;-147.16;62.13;76877.91;4253441;28;20331;-68
2023/03/15 06:59:21;;;;;;;13.27;4.87;;;;;;;-147.16;62.21;76869.81;4253780;28;20305;-64
2023/03/15 07:01:48;;;;;;;24.07;5.63;;;;;;;-147.16;62.39;76881.97;4254366;28;21223;-67
2023/03/15 07:04:17;;;;;;;15.27;4.77;;;;;;;-147.16;62.60;76881.97;4261003;28;24407;-64
2023/03/15 07:06:43;;;;;;;17.07;4.50;;;;;;;-147.16;62.32;76869.81;4258426;28;20232;-68
2023/03/15 07:09:10;;;;;;;16.93;5.83;;;;;;;-147.16;61.92;76861.72;4241352;28;21788;-68
2023/03/15 07:11:37;;;;;;;12.77;4.87;;;;;;;-147.16;61.75;76845.50;4250125;28;20233;-68
2023/03/15 07:14:03;;;;;;;13.57;5.13;;;;;;;-147.16;61.93;76869.81;4248645;28;20504;-65
2023/03/15 07:16:30;;;;;;;16.63;5.00;;;;;;;-147.16;62.24;76869.81;4249479;28;20227;-68
2023/03/15 07:18:58;;;;;;;21.63;6.10;;;;;;;-147.16;61.85;76853.63;4254867;28;20289;-66
2023/03/15 07:21:26;;;;;;;20.07;6.30;;;;;;;-147.16;61.91;76879.94;4251514;28;20289;-68
2023/03/15 07:23:53;;;;;;;16.63;7.30;;;;;;;-147.16;61.68;76900.19;4249152;28;20257;-67
2023/03/15 07:26:19;;;;;;;17.20;7.40;;;;;;;-147.16;61.42;76916.38;4253573;28;21689;-66
2023/03/15 07:28:46;;;;;;;17.10;7.27;;;;;;;-147.16;62.30;76926.50;4227951;28;20657;-65
2023/03/15 07:31:13;;;;;;;19.43;7.77;;;;;;;-147.16;62.09;76918.41;4267249;28;20223;-65
2023/03/15 07:33:41;;;;;;;19.67;7.70;;;;;;;-147.16;62.24;76892.09;4243298;28;21850;-67
2023/03/15 07:36:08;;;;;;;21.10;8.10;;;;;;;-147.16;61.73;76904.22;4246473;28;20706;-68
2023/03/15 07:38:35;;;;;;;18.73;7.77;;;;;;;-147.16;61.27;76906.25;4239574;28;21074;-66
2023/03/15 07:41:04;;;;;;;20.93;7.47;;;;;;;-147.16;61.28;76908.28;4258174;28;21373;-65
2023/03/15 07:43:31;;;;;;;16.23;7.53;;;;;;;-147.16;60.62;76910.31;4259023;28;21763;-69
2023/03/15 07:45:58;;;;;;;17.57;7.03;;;;;;;-147.16;60.53;76932.56;4253251;28;21138;-68
2023/03/15 07:48:25;;;;;;;14.77;7.20;;;;;;;-147.16;60.42;76922.44;4266693;28;20230;-68
2023/03/15 07:50:51;;;;;;;13.57;6.40;;;;;;;-147.16;60.41;76918.41;4271362;28;20253;-68
2023/03/15 07:53:18;;;;;;;15.07;7.23;;;;;;;-147.16;60.00;76904.22;4263449;28;20333;-66
2023/03/15 07:55:46;;;;;;;15.17;6.73;;;;;;;-147.16;59.85;76898.16;4269325;28;20227;-65
2023/03/15 07:58:14;;;;;;;12.90;5.80;;;;;;;-147.16;58.63;76900.19;4260335;28;21104;-67
2023/03/15 08:00:43;;;;;;;15.73;6.47;;;;;;;-147.16;58.72;76902.19;4266997;28;20488;-67
2023/03/15 08:03:10;;;;;;;19.53;6.57;;;;;;;-147.16;58.69;76898.16;4258141;28;22515;-67
2023/03/15 08:05:37;;;;;;;22.63;6.07;;;;;;;-147.16;59.09;76898.16;4262377;28;20714;-65
2023/03/15 08:08:04;;;;;;;19.97;6.50;;;;;;;-147.16;59.09;76894.09;4246559;28;20230;-69
2023/03/15 08:10:30;;;;;;;22.90;6.47;;;;;;;-147.16;58.90;76845.50;4263545;28;23068;-70
2023/03/15 08:12:57;;;;;;;15.07;5.77;;;;;;;-147.16;56.16;76805.03;4278198;28;20579;-68
2023/03/15 08:15:24;;;;;;;15.40;6.07;;;;;;;-147.16;55.72;76833.38;4263619;28;20245;-67
2023/03/15 08:17:50;;;;;;;20.07;6.30;;;;;;;-147.16;53.85;76770.59;4247486;28;20242;-68
2023/03/15 08:20:20;;;;;;;16.90;5.83;;;;;;;-147.16;53.36;76701.78;4340517;28;22248;-67
2023/03/15 08:22:48;;;;;;;15.73;5.90;;;;;;;-147.16;51.77;76720.00;4262899;28;23839;-69
2023/03/15 08:25:19;;;;;;;16.67;5.33;;;;;;;-147.16;52.56;76752.38;4253595;28;20227;-69
2023/03/15 08:27:45;;;;;;;14.90;5.37;;;;;;;-147.16;52.90;76796.91;4264856;28;21290;-71
2023/03/15 08:30:13;;;;;;;14.90;5.77;;;;;;;-147.16;52.64;76821.22;4302337;28;20391;-69
2023/03/15 08:32:43;;;;;;;16.53;5.60;;;;;;;-147.16;53.13;76869.81;4281201;28;20226;-69
2023/03/15 08:35:11;;;;;;;10.07;4.90;;;;;;;-147.16;53.27;76857.66;4256617;28;20235;-69
2023/03/15 08:37:45;;;;;;;15.47;5.97;;;;;;;-147.16;53.27;76873.84;4259589;28;20246;-70
2023/03/15 08:40:24;;;;;;;14.40;6.00;;;;;;;-147.16;52.76;76861.72;4253199;28;20298;-69
2023/03/15 08:42:51;;;;;;;11.73;5.17;;;;;;;-147.16;53.42;76861.72;4268411;28;20237;-70
2023/03/15 08:45:19;;;;;;;13.33;4.97;;;;;;;-147.16;53.75;76847.53;4269278;28;20288;-68
2023/03/15 08:47:46;;;;;;;10.13;3.93;;;;;;;-147.16;53.47;76805.03;4264247;28;22349;-68
2023/03/15 08:50:16;;;;;;;14.13;4.70;;;;;;;-147.16;52.23;76782.75;4277086;28;20892;-71
2023/03/15 08:52:43;;;;;;;12.63;4.53;;;;;;;-147.16;50.25;76764.53;4271963;28;20262;-68
2023/03/15 08:55:13;;;;;;;13.70;4.20;;;;;;;-147.16;52.15;76819.19;4287789;28;20375;-69
2023/03/15 08:57:42;;;;;;;14.93;4.57;;;;;;;-147.16;52.92;76817.16;4284435;28;21179;-71
2023/03/15 09:00:16;;;;;;;14.00;4.80;;;;;;;-147.16;50.48;76829.31;4261858;28;20643;-67
2023/03/15 09:02:42;;;;;;;14.63;4.53;;;;;;;-147.16;51.17;76833.38;4263224;28;20713;-68
2023/03/15 09:05:10;;;;;;;13.63;4.70;;;;;;;-147.16;50.15;76847.53;4251787;28;21913;-65
2023/03/15 09:07:41;;;;;;;12.43;4.33;;;;;;;-147.16;50.04;76845.50;4270515;28;20229;-69
2023/03/15 09:10:12;;;;;;;12.27;3.93;;;;;;;-147.16;50.08;76841.47;4243699;28;22222;-67
2023/03/15 09:12:39;;;;;;;11.33;3.40;;;;;;;-147.16;49.37;76833.38;4248778;28;20230;-67
2023/03/15 09:15:07;;;;;;;10.27;3.67;;;;;;;-147.16;50.10;76865.75;4287975;28;21809;-68
2023/03/15 09:17:33;;;;;;;15.03;3.77;;;;;;;-147.16;49.91;76837.41;4256356;28;20272;-67
2023/03/15 09:20:00;;;;;;;13.53;4.00;;;;;;;-147.16;49.52;76827.28;4262245;28;25854;-65
2023/03/15 09:22:26;;;;;;;12.60;4.10;;;;;;;-147.16;51.00;76873.84;4267501;28;23795;-67
2023/03/15 09:25:05;;;;;;;14.20;3.70;;;;;;;-147.16;50.81;76873.84;4265471;28;20230;-65
2023/03/15 09:27:32;;;;;;;9.33;3.67;;;;;;;-147.16;51.71;76892.09;4250912;28;22977;-66
2023/03/15 09:29:59;;;;;;;7.50;3.30;;;;;;;-147.16;52.36;76944.72;4291560;28;20386;-67
2023/03/15 09:32:26;;;;;;;11.70;2.97;;;;;;;-147.16;51.07;76898.16;4255533;28;20376;-68
2023/03/15 09:34:52;;;;;;;7.73;3.13;;;;;;;-147.16;50.07;76867.78;4258136;28;20659;-70
2023/03/15 09:37:20;;;;;;;14.37;3.10;;;;;;;-147.16;49.47;76853.63;4248597;28;20226;-67
2023/03/15 09:39:47;;;;;;;7.70;3.30;;;;;;;-147.16;49.50;76855.63;4258782;28;20621;-67
2023/03/15 09:42:24;;;;;;;7.57;2.57;;;;;;;-147.16;49.04;76853.63;4256232;28;20412;-68
2023/03/15 09:45:12;;;;;;;8.13;3.30;;;;;;;-147.16;49.51;76841.47;4238386;28;20404;-68
2023/03/15 09:47:59;;;;;;;10.77;3.60;;;;;;;-147.16;49.24;76809.06;4243569;28;21479;-66
2023/03/15 09:50:45;;;;;;;15.63;3.63;;;;;;;-147.16;49.11;76772.63;4257395;28;20238;-67
2023/03/15 09:53:35;;;;;;;12.33;2.93;;;;;;;-147.16;47.26;76695.69;4262475;28;22665;-66
2023/03/15 09:56:02;;;;;;;15.53;3.23;;;;;;;-147.16;48.62;76726.06;4256402;28;20644;-68
2023/03/15 09:58:34;;;;;;;10.17;4.00;;;;;;;-147.16;49.45;76687.59;4255237;28;20223;-68
2023/03/15 10:01:05;;;;;;;10.97;3.43;;;;;;;-147.16;48.99;76667.34;4254066;28;20302;-69
2023/03/15 10:03:49;;;;;;;11.97;3.47;;;;;;;-147.16;47.32;76685.56;4300912;28;21376;-67
2023/03/15 10:06:23;;;;;;;14.27;3.60;;;;;;;-147.16;46.29;76687.59;4237988;28;21845;-68
2023/03/15 10:08:54;;;;;;;12.27;3.67;;;;;;;-147.16;46.29;76685.56;4254289;28;20429;-67
2023/03/15 10:11:45;;;;;;;12.77;3.93;;;;;;;-147.16;45.65;76740.22;4264417;28;20232;-67
2023/03/15 10:14:38;;;;;;;15.90;3.80;;;;;;;-147.16;45.00;76736.19;4294795;28;20765;-69
2023/03/15 10:17:23;;;;;;;14.10;4.30;;;;;;;-147.16;46.16;76744.28;4252546;28;21809;-67
2023/03/15 10:20:00;;;;;;;10.43;3.83;;;;;;;-147.16;46.15;76752.38;4276940;28;21667;-68
2023/03/15 10:22:33;;;;;;;13.57;4.13;;;;;;;-147.16;46.06;76703.78;4290302;28;22955;-67
2023/03/15 10:25:16;;;;;;;12.30;3.43;;;;;;;-147.16;46.97;76715.94;4262872;28;25415;-68
2023/03/15 10:27:53;;;;;;;9.30;3.70;;;;;;;-147.16;45.57;76663.31;4254763;28;25941;-68
2023/03/15 10:30:28;;;;;;;15.30;3.73;;;;;;;-147.16;42.91;76695.69;4292584;28;20671;-68
2023/03/15 10:32:59;;;;;;;13.00;3.40;;;;;;;-147.16;43.56;76734.16;4263163;28;21253;-68
2023/03/15 10:35:26;;;;;;;8.53;3.00;;;;;;;-147.16;43.51;76748.34;4243736;28;20233;-69
2023/03/15 10:37:53;;;;;;;8.40;3.67;;;;;;;-147.16;44.34;76772.63;4264379;28;22082;-67
2023/03/15 10:40:43;;;;;;;16.33;4.60;;;;;;;-147.16;44.58;76748.34;4294593;28;20294;-70
2023/03/15 10:43:28;;;;;;;10.17;3.40;;;;;;;-147.16;45.79;76748.34;4273301;28;20302;-68
2023/03/15 10:46:12;;;;;;;16.40;3.93;;;;;;;-147.16;45.77;76740.22;4252884;28;20370;-67
2023/03/15 10:49:19;;;;;;;10.03;3.20;;;;;;;-147.16;45.73;76748.34;4262701;28;20316;-67
2023/03/15 10:51:47;;;;;;;10.90;2.90;;;;;;;-147.16;44.38;76744.28;4259121;28;22136;-69
2023/03/15 10:54:17;;;;;;;8.73;3.00;;;;;;;-147.16;45.13;76740.22;4255465;28;22048;-67
2023/03/15 10:56:49;;;;;;;12.23;3.27;;;;;;;-147.16;45.46;76758.47;4248721;28;20395;-67
2023/03/15 10:59:23;;;;;;;15.97;3.60;;;;;;;-147.16;45.49;76744.28;4271857;28;20234;-65
2023/03/15 11:02:06;;;;;;;11.07;3.27;;;;;;;-147.16;44.13;76736.19;4269734;28;20465;-66
2023/03/15 11:04:33;;;;;;;11.10;3.47;;;;;;;-147.16;46.02;76736.19;4243707;28;20271;-71
2023/03/15 11:07:02;;;;;;;8.40;2.77;;;;;;;-147.16;45.13;76715.94;4240004;28;20305;-66
2023/03/15 11:09:44;;;;;;;7.57;2.70;;;;;;;-147.16;44.72;76713.91;4263726;28;20397;-65
2023/03/15 11:12:23;;;;;;;11.17;2.77;;;;;;;-147.16;44.53;76732.13;4289115;28;20668;-67
2023/03/15 11:14:55;;;;;;;9.23;2.80;;;;;;;-147.16;44.85;76736.19;4248215;28;21152;-65
2023/03/15 11:17:25;;;;;;;11.83;2.70;;;;;;;-147.16;44.08;76699.75;4326901;28;20230;-67
2023/03/15 11:20:12;;;;;;;16.00;2.93;;;;;;;-147.16;44.06;76675.44;4280381;28;20239;-65
2023/03/15 11:22:39;;;;;;;8.40;2.57;;;;;;;-147.16;42.81;76628.88;4252892;28;21688;-65